Have a Safe July 4th! 

Flight Track Log - Related Links

Times and Time Zones

All times are in EDT time to prevent confusion due to time zone crossing. See the SWA1796 flight status page for this flight to view local times or setup timezone preferences in your user account.

Time Position Orientation Groundspeed Altitude Reporting Facility
EDT Latitude Longitude Course Direction KTS MPH feet Rate Location/Type
Thu 09:40:43 AM 36.0756 -115.1658 258° West 163 188 3,600  Level Los Angeles Center
Thu 09:42:02 AM 36.0606 -115.2558 258° West 257 296 5,900 1,455 Climbing Los Angeles Center
Thu 09:42:22 AM 36.0569 -115.2581 206° Southwest 245 282 6,000 3,582 Climbing Los Angeles Center
Thu 09:43:09 AM 35.9769 -115.2992 203° Southwest 294 338 9,900 4,426 Climbing Los Angeles Center
Thu 09:43:23 AM 35.9644 -115.3008 186° South 289 333 10,500 2,591 Climbing Los Angeles Center
Thu 09:44:37 AM 35.8708 -115.3125 186° South 323 372 13,700 3,467 Climbing Los Angeles Center
Thu 09:45:38 AM 35.7497 -115.3025 176° South 360 414 18,300 3,756 Climbing Los Angeles Center
Thu 09:46:40 AM 35.6497 -115.3317 193° South 380 437 21,400 2,780 Climbing Los Angeles Center
Thu 09:47:41 AM 35.5772 -115.4308 228° Southwest 386 444 24,000 3,220 Climbing Los Angeles Center
Thu 09:48:43 AM 35.4931 -115.5442 228° Southwest 375 432 28,000 1,951 Climbing Los Angeles Center
Thu 09:49:44 AM 35.4333 -115.6247 228° Southwest 368 423 28,000  Level Los Angeles Center
Thu 09:50:46 AM 35.3633 -115.7169 227° Southwest 370 426 28,000  Level Los Angeles Center
Thu 09:51:47 AM 35.2933 -115.8111 228° Southwest 372 428 28,000  Level Los Angeles Center
Thu 09:52:49 AM 35.2011 -115.9306 227° Southwest 399 459 28,000  Level Los Angeles Center
Thu 09:54:02 AM 35.1267 -116.0306 228° Southwest 398 458 28,000  Level Los Angeles Center
Thu 09:55:04 AM 35.0367 -116.1503 227° Southwest 400 460 28,000  Level Los Angeles Center
Thu 09:56:06 AM 34.9603 -116.2497 227° Southwest 401 461 28,000  Level Los Angeles Center
Thu 09:57:07 AM 34.8842 -116.3483 227° Southwest 400 460 28,000  Level Los Angeles Center
Thu 09:58:09 AM 34.8083 -116.4478 227° Southwest 400 460 28,000  Level Los Angeles Center
Thu 10:00:12 AM 34.6517 -116.6406 225° Southwest 400 460 28,000 -1,076 Level Los Angeles Center
Thu 10:01:13 AM 34.5731 -116.7372 225° Southwest 401 461 24,700 -3,415 Descending Los Angeles Center
Thu 10:02:15 AM 34.4772 -116.8533 225° Southwest 404 465 21,000 -3,317 Descending Los Angeles Center
Thu 10:03:16 AM 34.4003 -116.9478 225° Southwest 395 455 17,900 -2,927 Descending Los Angeles Center
Thu 10:04:18 AM 34.3250 -117.0381 225° Southwest 383 441 15,000 -2,390 Descending Los Angeles Center
Thu 10:05:19 AM 34.2442 -117.1125 217° Southwest 373 429 13,000 -976 Descending Los Angeles Center
Thu 10:06:21 AM 34.1514 -117.1292 188° South 338 389 13,000  Level Los Angeles Center
Thu 10:07:08 AM 34.0667 -117.1500 192° South 339 390 13,000 -1,065 Level Southern California TRACON
Thu 10:08:08 AM 33.9833 -117.1833 198° South 335 386 11,100 -1,500 Descending Southern California TRACON
Thu 10:09:08 AM 33.9000 -117.2167 198° South 315 362 10,000 -524 Descending Southern California TRACON
Thu 10:10:14 AM 33.8667 -117.3167 248° West 319 367 10,000 -50 Level Southern California TRACON
Thu 10:11:08 AM 33.8333 -117.4000 244° Southwest 298 343 9,900 -722 Descending Southern California TRACON
Thu 10:12:02 AM 33.8167 -117.4833 256° West 288 331 8,700 -947 Descending Southern California TRACON
Thu 10:13:02 AM 33.7833 -117.5667 244° Southwest 259 298 8,100 -600 Descending Southern California TRACON
Thu 10:13:32 AM 33.7839 -117.5986 271° West 262 302 7,800 -1,100 Descending Los Angeles Center
Thu 10:14:02 AM 33.8000 -117.6500 291° West 237 273 7,000 -1,286 Descending Southern California TRACON
Thu 10:14:56 AM 33.8333 -117.7000 309° West 226 260 6,000 -1,632 Descending Southern California TRACON
Thu 10:15:56 AM 33.8333 -117.7667 270° West 222 255 3,900 -1,486 Descending Southern California TRACON
Thu 10:16:45 AM 33.8000 -117.7833 203° Southwest 178 205 3,300 -1,101 Descending Southern California TRACON
Thu 10:17:45 AM 33.7667 -117.8167 220° Southwest 146 168 1,900 -1,050 Descending Southern California TRACON
Thu 10:18:45 AM 33.7333 -117.8333 203° Southwest 121 139 1,200 -706 Descending Southern California TRACON
Thu 10:19:44 AM 33.7000 -117.8500 203° Southwest 131 151 500 -712 Descending Southern California TRACON
Thu 10:22:00 AM 33.6757 -117.8682 132° Southeast  Level Estimated
Thu 10:29:00 AM 33.6757 -117.8682 132° Southeast  Level Estimated

Login

Don't have an account? Register now (free) for customized features, flight alerts, and more!